createdAt,value
2023-03-26T00:00:20.030Z,22.78
2023-03-26T00:01:24.706Z,22.71
2023-03-26T00:02:29.822Z,22.75
2023-03-26T00:03:37.383Z,22.74
2023-03-26T00:04:39.297Z,22.73
2023-03-26T00:05:41.573Z,22.68
2023-03-26T00:06:43.904Z,22.71
2023-03-26T00:07:46.245Z,22.68
2023-03-26T00:08:48.998Z,22.66
2023-03-26T00:09:50.797Z,22.58
2023-03-26T00:10:52.606Z,22.65
2023-03-26T00:11:54.818Z,22.62
2023-03-26T00:12:56.585Z,22.62
2023-03-26T00:13:58.426Z,22.56
2023-03-26T00:15:00.205Z,22.60
2023-03-26T00:16:03.176Z,22.60
2023-03-26T00:17:04.999Z,22.58
2023-03-26T00:18:09.245Z,22.56
2023-03-26T00:19:11.762Z,22.57
2023-03-26T00:20:14.044Z,22.53
2023-03-26T00:21:18.654Z,22.54
2023-03-26T00:22:20.538Z,22.55
2023-03-26T00:23:22.518Z,22.54
2023-03-26T00:24:29.480Z,22.53
2023-03-26T00:25:32.156Z,22.49
2023-03-26T00:26:35.532Z,22.51
2023-03-26T00:27:38.256Z,22.51
2023-03-26T00:28:42.564Z,22.49
2023-03-26T00:29:44.862Z,22.50
2023-03-26T00:30:46.714Z,22.48
2023-03-26T00:31:49.357Z,22.45
2023-03-26T00:32:53.470Z,22.48
2023-03-26T00:33:56.301Z,22.46
2023-03-26T00:34:58.336Z,22.40
2023-03-26T00:36:03.908Z,22.44
2023-03-26T00:37:06.310Z,22.41
2023-03-26T00:38:08.977Z,22.41
2023-03-26T00:39:10.912Z,22.38
2023-03-26T00:40:13.089Z,22.36
2023-03-26T00:41:25.064Z,22.38
2023-03-26T00:42:26.910Z,22.41
2023-03-26T00:43:32.910Z,22.40
2023-03-26T00:44:35.386Z,22.38
2023-03-26T00:45:37.205Z,22.37
2023-03-26T00:46:39.762Z,22.35
2023-03-26T00:47:43.549Z,22.35
2023-03-26T00:48:46.757Z,22.34
2023-03-26T00:49:49.423Z,22.34
2023-03-26T00:50:51.265Z,22.32
2023-03-26T00:51:53.136Z,22.30
2023-03-26T00:52:55.908Z,22.30
2023-03-26T00:53:58.492Z,22.30
2023-03-26T00:55:00.305Z,22.29
2023-03-26T00:56:02.080Z,22.26
2023-03-26T00:57:06.907Z,22.27
2023-03-26T00:58:12.220Z,22.27
2023-03-26T00:59:14.154Z,22.28
2023-03-26T01:00:19.297Z,22.25
2023-03-26T01:01:29.296Z,22.18
2023-03-26T01:02:33.129Z,22.21
2023-03-26T01:03:38.201Z,22.23
2023-03-26T01:04:40.449Z,22.24
2023-03-26T01:05:53.305Z,22.23
2023-03-26T01:06:55.787Z,22.03
2023-03-26T01:08:15.181Z,22.23
2023-03-26T01:09:25.097Z,22.25
2023-03-26T01:10:27.004Z,22.25
2023-03-26T01:11:32.232Z,22.19
2023-03-26T01:12:34.207Z,22.20
2023-03-26T01:13:38.686Z,22.16
2023-03-26T01:14:40.653Z,22.18
2023-03-26T01:15:42.513Z,22.17
2023-03-26T01:16:52.663Z,22.15
2023-03-26T01:17:57.949Z,22.18
2023-03-26T01:19:00.605Z,22.17
2023-03-26T01:20:26.813Z,22.16
2023-03-26T01:21:30.503Z,22.20
2023-03-26T01:22:36.669Z,22.17
2023-03-26T01:23:51.615Z,22.13
2023-03-26T01:24:54.168Z,22.18
2023-03-26T01:26:07.885Z,22.15
2023-03-26T01:27:24.407Z,22.19
2023-03-26T01:28:32.070Z,22.17
2023-03-26T01:29:54.629Z,22.16
2023-03-26T01:31:29.631Z,22.09
2023-03-26T01:32:48.570Z,22.25
2023-03-26T01:34:02.957Z,22.21
2023-03-26T01:35:19.195Z,22.20
2023-03-26T01:36:36.587Z,22.12
2023-03-26T01:38:23.330Z,22.18
2023-03-26T01:39:49.512Z,22.26
2023-03-26T01:41:21.043Z,22.25
2023-03-26T01:42:37.259Z,22.17
2023-03-26T01:43:43.350Z,22.18
2023-03-26T01:44:59.868Z,22.16
2023-03-26T01:46:05.711Z,22.12
2023-03-26T01:47:09.698Z,22.10
2023-03-26T01:48:12.858Z,22.04
2023-03-26T01:49:14.635Z,22.03
2023-03-26T01:50:16.927Z,22.05
2023-03-26T01:51:33.299Z,22.06
2023-03-26T01:52:35.321Z,22.06
2023-03-26T01:53:44.008Z,22.02
2023-03-26T01:54:46.726Z,22.04
2023-03-26T01:56:15.288Z,22.07
2023-03-26T01:57:36.765Z,22.10
2023-03-26T01:58:53.417Z,22.12
2023-03-26T02:00:30.407Z,22.12
2023-03-26T02:01:49.034Z,22.15
2023-03-26T02:03:17.816Z,22.13
2023-03-26T02:04:32.120Z,22.12
2023-03-26T02:06:23.709Z,22.14
2023-03-26T02:07:28.840Z,22.09
2023-03-26T02:08:56.964Z,22.05
2023-03-26T02:10:06.221Z,22.04
2023-03-26T02:11:14.329Z,22.03
2023-03-26T02:12:17.816Z,22.03
2023-03-26T02:13:20.077Z,22.00
2023-03-26T02:14:22.070Z,21.98
2023-03-26T02:15:24.427Z,21.97
2023-03-26T02:16:26.266Z,21.90
2023-03-26T02:17:30.219Z,21.94
2023-03-26T02:18:39.268Z,21.94
2023-03-26T02:19:42.420Z,21.95
2023-03-26T02:20:44.275Z,21.94
2023-03-26T02:21:49.464Z,21.93
2023-03-26T02:22:51.296Z,21.93
2023-03-26T02:24:05.748Z,21.92
2023-03-26T02:25:12.835Z,21.96
2023-03-26T02:26:18.586Z,21.88
2023-03-26T02:27:37.105Z,21.99
2023-03-26T02:28:39.166Z,21.96
2023-03-26T02:29:42.629Z,21.94
2023-03-26T02:30:47.511Z,21.94
2023-03-26T02:31:51.096Z,21.91
2023-03-26T02:32:54.462Z,21.89
2023-03-26T02:33:58.104Z,21.91
2023-03-26T02:35:02.638Z,21.92
2023-03-26T02:36:06.198Z,21.91
2023-03-26T02:37:09.169Z,21.91
2023-03-26T02:38:14.541Z,21.84
2023-03-26T02:39:17.035Z,21.91
2023-03-26T02:40:26.710Z,21.88
2023-03-26T02:41:28.605Z,21.92
2023-03-26T02:42:34.897Z,21.91
2023-03-26T02:43:36.810Z,21.91
2023-03-26T02:44:40.327Z,21.85
2023-03-26T02:45:48.037Z,21.92
2023-03-26T02:47:19.857Z,21.99
2023-03-26T02:48:27.766Z,21.98
2023-03-26T02:49:41.053Z,21.97
2023-03-26T02:50:43.672Z,21.93
2023-03-26T02:52:06.672Z,21.97
2023-03-26T02:53:10.014Z,21.94
2023-03-26T02:54:16.836Z,21.94
2023-03-26T02:55:27.765Z,21.94
2023-03-26T02:56:33.502Z,21.92
2023-03-26T02:58:12.347Z,21.98
2023-03-26T02:59:15.056Z,21.95
2023-03-26T03:00:22.442Z,21.93
2023-03-26T03:01:30.991Z,21.92
2023-03-26T03:02:33.139Z,21.83
2023-03-26T03:03:49.195Z,21.92
2023-03-26T03:05:01.940Z,21.91
2023-03-26T03:06:09.206Z,21.91
2023-03-26T03:07:24.459Z,21.90
2023-03-26T03:08:28.295Z,21.86
2023-03-26T03:09:50.695Z,21.92
2023-03-26T03:11:18.140Z,21.94
2023-03-26T03:12:23.729Z,21.92
2023-03-26T03:13:25.663Z,21.90
2023-03-26T03:14:27.585Z,21.77
2023-03-26T03:15:29.604Z,21.84
2023-03-26T03:16:32.201Z,21.76
2023-03-26T03:17:47.633Z,21.82
2023-03-26T03:18:54.654Z,21.83
2023-03-26T03:19:58.000Z,21.84
2023-03-26T03:21:00.849Z,21.84
2023-03-26T03:22:02.665Z,21.78
2023-03-26T03:23:05.936Z,21.78
2023-03-26T03:24:09.151Z,21.82
2023-03-26T03:25:17.559Z,21.78
2023-03-26T03:26:23.514Z,21.83
2023-03-26T03:27:27.810Z,21.82
2023-03-26T03:28:37.136Z,21.79
2023-03-26T03:29:39.284Z,21.75
2023-03-26T03:31:09.139Z,21.87
2023-03-26T03:32:12.245Z,21.85
2023-03-26T03:33:21.472Z,21.85
2023-03-26T03:34:23.483Z,21.78
2023-03-26T03:35:30.304Z,21.76
2023-03-26T03:36:38.565Z,21.77
2023-03-26T03:37:59.077Z,21.85
2023-03-26T03:39:02.947Z,21.79
2023-03-26T03:40:07.804Z,21.81
2023-03-26T03:41:11.353Z,21.79
2023-03-26T03:42:16.722Z,21.74
2023-03-26T03:43:18.935Z,21.71
2023-03-26T03:44:34.788Z,21.81
2023-03-26T03:45:40.294Z,21.79
2023-03-26T03:46:49.245Z,21.71
2023-03-26T03:47:51.376Z,21.76
2023-03-26T03:48:59.631Z,21.77
2023-03-26T03:50:07.547Z,21.72
2023-03-26T03:51:11.200Z,21.77
2023-03-26T03:52:28.548Z,21.75
2023-03-26T03:53:31.515Z,21.71
2023-03-26T03:54:35.395Z,21.74
2023-03-26T03:55:56.959Z,21.78
2023-03-26T03:57:06.889Z,21.77
2023-03-26T03:58:28.357Z,21.78
2023-03-26T03:59:35.542Z,21.77
2023-03-26T04:00:41.646Z,21.75
2023-03-26T04:02:03.783Z,21.78
2023-03-26T04:03:14.383Z,21.77
2023-03-26T04:04:17.916Z,21.71
2023-03-26T04:05:40.716Z,21.78
2023-03-26T04:06:42.637Z,21.74
2023-03-26T04:07:46.397Z,21.72
2023-03-26T04:08:51.914Z,21.67
2023-03-26T04:09:54.334Z,21.69
2023-03-26T04:10:58.067Z,21.69
2023-03-26T04:12:35.503Z,21.74
2023-03-26T04:13:38.584Z,21.69
2023-03-26T04:15:03.777Z,21.76
2023-03-26T04:16:06.783Z,21.72
2023-03-26T04:17:09.792Z,21.69
2023-03-26T04:18:13.130Z,21.70
2023-03-26T04:19:18.346Z,21.68
2023-03-26T04:20:21.039Z,21.61
2023-03-26T04:21:26.336Z,21.61
2023-03-26T04:22:36.560Z,21.67
2023-03-26T04:23:42.654Z,21.67
2023-03-26T04:25:05.379Z,21.71
2023-03-26T04:26:17.034Z,21.52
2023-03-26T04:27:41.807Z,21.67
2023-03-26T04:29:17.121Z,21.69
2023-03-26T04:30:20.866Z,21.74
2023-03-26T04:31:47.155Z,21.74
2023-03-26T04:32:51.394Z,21.70
2023-03-26T04:34:01.563Z,21.67
2023-03-26T04:35:05.328Z,21.67
2023-03-26T04:36:10.378Z,21.58
2023-03-26T04:37:39.737Z,21.58
2023-03-26T04:39:05.366Z,21.72
2023-03-26T04:40:25.671Z,21.68
2023-03-26T04:41:37.509Z,21.69
2023-03-26T04:42:41.881Z,21.65
2023-03-26T04:43:54.202Z,21.44
2023-03-26T04:45:30.408Z,21.68
2023-03-26T04:46:33.739Z,21.64
2023-03-26T04:47:59.159Z,21.63
2023-03-26T04:49:01.751Z,21.61
2023-03-26T04:50:08.181Z,21.60
2023-03-26T04:51:18.069Z,21.60
2023-03-26T04:52:21.188Z,21.61
2023-03-26T04:53:31.910Z,21.61
2023-03-26T04:54:53.949Z,21.43
2023-03-26T04:56:04.194Z,21.61
2023-03-26T04:57:32.725Z,21.64
2023-03-26T04:58:42.548Z,21.65
2023-03-26T04:59:44.453Z,21.59
2023-03-26T05:00:49.770Z,21.60
2023-03-26T05:01:53.825Z,21.58
2023-03-26T05:03:01.557Z,21.58
2023-03-26T05:04:04.276Z,21.52
2023-03-26T05:05:06.528Z,21.57
2023-03-26T05:06:11.398Z,21.54
2023-03-26T05:07:18.858Z,21.51
2023-03-26T05:08:24.260Z,21.58
2023-03-26T05:09:26.826Z,21.50
2023-03-26T05:10:48.852Z,21.57
2023-03-26T05:11:58.542Z,21.60
2023-03-26T05:13:01.037Z,21.59
2023-03-26T05:14:14.783Z,21.60
2023-03-26T05:15:17.335Z,21.52
2023-03-26T05:16:42.682Z,21.57
2023-03-26T05:17:44.871Z,21.58
2023-03-26T05:18:55.732Z,21.53
2023-03-26T05:20:08.373Z,21.56
2023-03-26T05:21:11.192Z,21.58
2023-03-26T05:22:14.875Z,21.56
2023-03-26T05:23:36.575Z,21.60
2023-03-26T05:24:46.519Z,21.53
2023-03-26T05:25:48.455Z,21.55
2023-03-26T05:26:53.850Z,21.54
2023-03-26T05:27:59.416Z,21.55
2023-03-26T05:29:07.978Z,21.53
2023-03-26T05:30:18.719Z,21.43
2023-03-26T05:31:27.068Z,21.54
2023-03-26T05:32:32.267Z,21.53
2023-03-26T05:33:34.829Z,21.49
2023-03-26T05:34:43.002Z,21.48
2023-03-26T05:35:45.553Z,21.51
2023-03-26T05:36:48.694Z,21.50
2023-03-26T05:38:18.288Z,21.53
2023-03-26T05:39:25.798Z,21.55
2023-03-26T05:41:06.821Z,21.54
2023-03-26T05:42:10.432Z,21.58
2023-03-26T05:43:43.610Z,21.61
2023-03-26T05:44:52.392Z,21.59
2023-03-26T05:46:00.179Z,21.56
2023-03-26T05:47:05.548Z,21.54
2023-03-26T05:48:08.850Z,21.52
2023-03-26T05:49:10.856Z,21.42
2023-03-26T05:50:12.964Z,21.49
2023-03-26T05:51:17.536Z,21.43
2023-03-26T05:52:31.320Z,21.52
2023-03-26T05:53:51.862Z,21.54
2023-03-26T05:55:13.311Z,21.57
2023-03-26T05:56:38.215Z,21.58
2023-03-26T05:58:06.315Z,21.59
2023-03-26T05:59:28.337Z,21.59
2023-03-26T06:00:49.024Z,21.58
2023-03-26T06:02:03.135Z,21.50
2023-03-26T06:03:06.045Z,21.50
2023-03-26T06:04:41.122Z,21.47
2023-03-26T06:05:55.110Z,21.53
2023-03-26T06:07:13.497Z,21.53
2023-03-26T06:08:20.638Z,21.40
2023-03-26T06:09:26.569Z,21.50
2023-03-26T06:10:28.403Z,21.45
2023-03-26T06:11:33.055Z,21.47
2023-03-26T06:12:37.062Z,21.49
2023-03-26T06:13:40.017Z,21.49
2023-03-26T06:14:45.893Z,21.53
2023-03-26T06:15:58.978Z,21.59
2023-03-26T06:17:12.978Z,21.66
2023-03-26T06:18:38.494Z,21.70
2023-03-26T06:20:09.280Z,21.74
2023-03-26T06:21:18.147Z,21.83
2023-03-26T06:22:26.576Z,21.85
2023-03-26T06:23:49.153Z,21.91
2023-03-26T06:25:22.985Z,21.95
2023-03-26T06:26:34.464Z,22.05
2023-03-26T06:27:54.998Z,22.10
2023-03-26T06:29:20.024Z,22.14
2023-03-26T06:30:32.069Z,22.20
2023-03-26T06:31:42.933Z,22.24
2023-03-26T06:32:54.263Z,22.21
2023-03-26T06:34:00.474Z,22.27
2023-03-26T06:35:02.350Z,22.33
2023-03-26T06:36:04.623Z,22.36
2023-03-26T06:37:06.418Z,22.39
2023-03-26T06:38:08.935Z,22.42
2023-03-26T06:39:11.294Z,22.45
2023-03-26T06:40:21.872Z,22.46
2023-03-26T06:41:42.101Z,22.59
2023-03-26T06:43:08.719Z,22.57
2023-03-26T06:44:36.005Z,22.74
2023-03-26T06:46:02.252Z,22.77
2023-03-26T06:47:13.072Z,22.70
2023-03-26T06:48:53.528Z,22.87
2023-03-26T06:50:27.645Z,22.90
2023-03-26T06:51:58.790Z,22.94
2023-03-26T06:53:21.127Z,22.90
2023-03-26T06:54:44.671Z,22.96
2023-03-26T06:56:09.684Z,22.97
2023-03-26T06:57:37.220Z,23.00
2023-03-26T06:59:14.057Z,23.04
2023-03-26T07:00:34.207Z,23.05
2023-03-26T07:01:54.271Z,23.03
2023-03-26T07:03:14.544Z,23.04
2023-03-26T07:04:42.303Z,23.07
2023-03-26T07:06:02.587Z,23.07
2023-03-26T07:07:24.775Z,23.08
2023-03-26T07:08:45.353Z,23.07
2023-03-26T07:10:07.082Z,23.08
2023-03-26T07:11:27.121Z,23.08
2023-03-26T07:12:49.297Z,23.08
2023-03-26T07:14:09.392Z,23.12
2023-03-26T07:15:42.529Z,23.14
2023-03-26T07:16:44.406Z,23.10
2023-03-26T07:18:08.468Z,23.12
2023-03-26T07:19:11.813Z,23.07
2023-03-26T07:20:15.539Z,23.09
2023-03-26T07:21:19.878Z,23.08
2023-03-26T07:22:24.753Z,23.07
2023-03-26T07:23:38.896Z,23.11
2023-03-26T07:25:10.426Z,23.16
2023-03-26T07:26:52.129Z,23.14
2023-03-26T07:28:04.004Z,23.16
2023-03-26T07:29:43.555Z,23.20
2023-03-26T07:31:34.877Z,23.22
2023-03-26T07:33:14.374Z,23.24
2023-03-26T07:34:59.818Z,23.19
2023-03-26T07:36:33.155Z,23.21
2023-03-26T07:38:12.795Z,23.21
2023-03-26T07:39:51.206Z,23.19
2023-03-26T07:41:04.565Z,23.16
2023-03-26T07:43:05.487Z,23.16
2023-03-26T07:44:47.872Z,23.19
2023-03-26T07:46:14.303Z,23.17
2023-03-26T07:47:37.609Z,23.12
2023-03-26T07:49:01.758Z,23.14
2023-03-26T07:50:19.353Z,23.10
2023-03-26T07:51:39.943Z,23.12
2023-03-26T07:52:58.719Z,23.11
2023-03-26T07:54:16.749Z,23.09
2023-03-26T07:56:00.076Z,23.12
2023-03-26T07:57:55.993Z,23.11
2023-03-26T07:59:31.369Z,23.17
2023-03-26T08:01:02.639Z,23.16
2023-03-26T08:02:39.007Z,23.13
2023-03-26T08:04:29.879Z,23.20
2023-03-26T08:05:53.324Z,23.17
2023-03-26T08:07:25.885Z,23.15
2023-03-26T08:09:23.658Z,23.20
2023-03-26T08:11:43.289Z,23.24
2023-03-26T08:13:24.823Z,23.16
2023-03-26T08:14:44.519Z,23.22
2023-03-26T08:16:00.672Z,23.16
2023-03-26T08:17:14.398Z,23.12
2023-03-26T08:18:41.509Z,23.16
2023-03-26T08:20:02.331Z,23.14
2023-03-26T08:21:14.096Z,23.12
2023-03-26T08:22:41.433Z,23.14
2023-03-26T08:24:04.901Z,23.18
2023-03-26T08:25:22.686Z,23.20
2023-03-26T08:26:57.639Z,23.19
2023-03-26T08:28:11.971Z,23.22
2023-03-26T08:29:33.044Z,23.20
2023-03-26T08:30:34.954Z,23.20
2023-03-26T08:31:41.431Z,23.17
2023-03-26T08:32:52.835Z,23.15
2023-03-26T08:33:54.684Z,23.16
2023-03-26T08:34:57.617Z,23.16
2023-03-26T08:35:59.546Z,23.16
2023-03-26T08:37:01.604Z,23.14
2023-03-26T08:38:03.482Z,23.04
2023-03-26T08:39:06.023Z,23.10
2023-03-26T08:40:09.436Z,23.15
2023-03-26T08:41:24.922Z,23.17
2023-03-26T08:43:01.567Z,23.21
2023-03-26T08:44:51.764Z,23.31
2023-03-26T08:46:18.492Z,23.33
2023-03-26T08:48:03.731Z,23.35
2023-03-26T08:49:30.360Z,23.36
2023-03-26T08:50:41.117Z,23.33
2023-03-26T08:51:58.832Z,23.30
2023-03-26T08:53:28.720Z,23.31
2023-03-26T08:54:48.408Z,23.33
2023-03-26T08:56:01.504Z,23.30
2023-03-26T08:57:32.509Z,23.31
2023-03-26T08:59:22.762Z,23.36
2023-03-26T09:00:43.210Z,23.38
2023-03-26T09:02:06.794Z,23.39
2023-03-26T09:03:17.746Z,23.36
2023-03-26T09:04:51.049Z,23.35
2023-03-26T09:06:50.366Z,23.42
2023-03-26T09:08:15.938Z,23.43
2023-03-26T09:10:05.854Z,23.44
2023-03-26T09:11:13.417Z,23.40
2023-03-26T09:12:36.582Z,23.31
2023-03-26T09:14:15.091Z,23.38
2023-03-26T09:15:22.828Z,23.37
2023-03-26T09:17:06.706Z,23.37
2023-03-26T09:18:36.173Z,23.38
2023-03-26T09:20:19.427Z,23.41
2023-03-26T09:21:52.063Z,23.40
2023-03-26T09:23:11.691Z,23.40
2023-03-26T09:24:36.256Z,23.39
2023-03-26T09:25:56.230Z,23.36
2023-03-26T09:27:01.139Z,23.35
2023-03-26T09:28:50.602Z,23.39
2023-03-26T09:30:20.446Z,23.39
2023-03-26T09:31:34.264Z,23.40
2023-03-26T09:33:05.859Z,23.36
2023-03-26T09:34:26.497Z,23.39
2023-03-26T09:35:36.943Z,23.37
2023-03-26T09:36:53.772Z,23.35
2023-03-26T09:37:59.795Z,23.33
2023-03-26T09:39:23.244Z,23.33
2023-03-26T09:40:37.355Z,23.34
2023-03-26T09:42:10.018Z,23.38
2023-03-26T09:43:17.617Z,23.24
2023-03-26T09:44:58.165Z,23.38
2023-03-26T09:46:06.129Z,23.38
2023-03-26T09:47:30.186Z,23.37
2023-03-26T09:48:54.191Z,23.37
2023-03-26T09:50:14.787Z,23.39
2023-03-26T09:51:38.372Z,23.36
2023-03-26T09:53:09.989Z,23.38
2023-03-26T09:54:26.990Z,23.36
2023-03-26T09:55:59.998Z,23.38
2023-03-26T09:57:02.942Z,23.37
2023-03-26T09:58:36.923Z,23.37
2023-03-26T09:59:49.758Z,23.31
2023-03-26T10:01:25.158Z,23.39
2023-03-26T10:02:59.429Z,23.41
2023-03-26T10:04:33.349Z,23.41
2023-03-26T10:05:47.181Z,23.39
2023-03-26T10:07:43.952Z,23.42
2023-03-26T10:08:58.207Z,23.43
2023-03-26T10:10:26.233Z,23.41
2023-03-26T10:11:55.606Z,23.40
2023-03-26T10:13:32.466Z,23.44
2023-03-26T10:15:25.432Z,23.44
2023-03-26T10:16:46.056Z,23.48
2023-03-26T10:18:27.006Z,23.43
2023-03-26T10:20:04.670Z,23.43
2023-03-26T10:21:10.501Z,23.35
2023-03-26T10:22:49.835Z,23.26
2023-03-26T10:24:23.907Z,23.19
2023-03-26T10:25:37.610Z,23.07
2023-03-26T10:27:09.688Z,22.97
2023-03-26T10:28:21.305Z,22.87
2023-03-26T10:30:01.543Z,22.78
2023-03-26T10:31:06.645Z,22.64
2023-03-26T10:32:33.852Z,22.55
2023-03-26T10:33:45.768Z,22.47
2023-03-26T10:35:12.245Z,22.37
2023-03-26T10:36:41.463Z,22.31
2023-03-26T10:38:09.705Z,22.22
2023-03-26T10:39:11.535Z,22.15
2023-03-26T10:41:00.816Z,22.05
2023-03-26T10:42:11.610Z,21.98
2023-03-26T10:43:36.216Z,21.89
2023-03-26T10:44:45.845Z,21.82
2023-03-26T10:46:18.374Z,21.76
2023-03-26T10:47:42.145Z,21.71
2023-03-26T10:49:01.078Z,21.63
2023-03-26T10:50:16.956Z,21.57
2023-03-26T10:51:51.579Z,21.52
2023-03-26T10:53:23.450Z,21.43
2023-03-26T10:54:39.268Z,21.43
2023-03-26T10:55:46.686Z,21.29
2023-03-26T10:56:52.805Z,21.26
2023-03-26T10:58:21.957Z,21.25
2023-03-26T10:59:27.044Z,21.19
2023-03-26T11:00:31.347Z,21.14
2023-03-26T11:02:04.216Z,21.05
2023-03-26T11:03:26.121Z,21.10
2023-03-26T11:04:54.473Z,21.07
2023-03-26T11:06:28.720Z,21.04
2023-03-26T11:07:44.570Z,21.00
2023-03-26T11:09:03.525Z,20.94
2023-03-26T11:10:30.377Z,20.91
2023-03-26T11:11:39.300Z,20.84
2023-03-26T11:12:48.843Z,20.76
2023-03-26T11:14:04.961Z,20.77
2023-03-26T11:15:28.266Z,20.79
2023-03-26T11:16:40.791Z,20.76
2023-03-26T11:18:06.795Z,20.74
2023-03-26T11:19:54.991Z,20.76
2023-03-26T11:21:18.528Z,20.74
2023-03-26T11:22:51.158Z,20.75
2023-03-26T11:24:07.511Z,20.70
2023-03-26T11:25:21.686Z,20.64
2023-03-26T11:26:39.360Z,20.60
2023-03-26T11:29:32.802Z,20.55
2023-03-26T11:30:41.378Z,20.55
2023-03-26T11:31:54.939Z,20.51
2023-03-26T11:33:03.820Z,20.42
2023-03-26T11:34:13.315Z,20.44
2023-03-26T11:35:40.313Z,20.42
2023-03-26T11:36:50.084Z,20.43
2023-03-26T11:37:59.420Z,20.42
2023-03-26T11:39:04.668Z,20.30
2023-03-26T11:40:18.087Z,20.37
2023-03-26T11:41:24.530Z,20.37
2023-03-26T11:42:36.733Z,20.37
2023-03-26T11:43:38.564Z,20.33
2023-03-26T11:45:14.590Z,20.36
2023-03-26T11:46:20.792Z,20.33
2023-03-26T11:47:33.834Z,20.30
2023-03-26T11:48:38.568Z,20.28
2023-03-26T11:49:40.726Z,20.28
2023-03-26T11:50:48.144Z,20.22
2023-03-26T11:51:50.265Z,20.17
2023-03-26T11:52:52.414Z,20.21
2023-03-26T11:53:54.697Z,20.18
2023-03-26T11:54:59.468Z,20.15
2023-03-26T11:56:32.670Z,20.24
2023-03-26T11:57:36.309Z,20.23
2023-03-26T11:58:53.293Z,20.18
2023-03-26T12:00:06.684Z,20.12
2023-03-26T12:01:22.885Z,20.18
2023-03-26T12:02:25.001Z,20.17
2023-03-26T12:03:30.314Z,20.13
2023-03-26T12:04:50.905Z,20.04
2023-03-26T12:05:59.436Z,20.14
2023-03-26T12:07:16.851Z,20.12
2023-03-26T12:08:22.415Z,20.12
2023-03-26T12:09:26.662Z,20.10
2023-03-26T12:10:35.084Z,20.07
2023-03-26T12:11:37.692Z,20.06
2023-03-26T12:12:42.175Z,20.04
2023-03-26T12:13:52.791Z,20.03
2023-03-26T12:14:54.796Z,20.04
2023-03-26T12:16:07.560Z,20.01
2023-03-26T12:17:14.582Z,20.02
2023-03-26T12:18:27.798Z,20.01
2023-03-26T12:19:40.156Z,19.96
2023-03-26T12:20:42.649Z,19.99
2023-03-26T12:21:53.115Z,20.01
2023-03-26T12:22:59.240Z,20.00
2023-03-26T12:24:05.495Z,20.01
2023-03-26T12:25:22.584Z,20.01
2023-03-26T12:26:42.473Z,20.02
2023-03-26T12:28:04.982Z,20.06
2023-03-26T12:29:15.662Z,20.04
2023-03-26T12:30:26.503Z,20.02
2023-03-26T12:31:30.520Z,19.96
2023-03-26T12:32:45.297Z,19.98
2023-03-26T12:34:07.940Z,20.02
2023-03-26T12:35:30.824Z,20.02
2023-03-26T12:36:35.940Z,20.02
2023-03-26T12:37:43.498Z,19.98
2023-03-26T12:38:46.116Z,19.96
2023-03-26T12:40:30.479Z,19.87
2023-03-26T12:44:43.725Z,19.97
2023-03-26T12:44:55.269Z,20.01
2023-03-26T12:44:58.763Z,19.98
2023-03-26T12:47:54.475Z,19.99
2023-03-26T12:48:00.155Z,20.02
2023-03-26T12:49:06.455Z,19.94
2023-03-26T12:50:14.748Z,19.94
2023-03-26T12:51:43.374Z,19.94
2023-03-26T12:52:59.922Z,19.88
2023-03-26T12:54:23.784Z,19.89
2023-03-26T12:55:57.886Z,19.96
2023-03-26T12:57:23.096Z,19.95
2023-03-26T12:58:51.333Z,19.96
2023-03-26T13:00:25.677Z,19.95
2023-03-26T13:01:45.564Z,19.93
2023-03-26T13:03:00.162Z,19.91
2023-03-26T13:04:30.198Z,19.87
2023-03-26T13:05:58.162Z,19.90
2023-03-26T13:07:21.276Z,19.88
2023-03-26T13:08:41.671Z,19.89
2023-03-26T13:10:01.959Z,19.88
2023-03-26T13:11:41.105Z,19.88
2023-03-26T13:12:55.052Z,19.85
2023-03-26T13:14:14.900Z,19.82
2023-03-26T13:15:36.793Z,19.82
2023-03-26T13:17:05.054Z,19.85
2023-03-26T13:18:39.045Z,19.87
2023-03-26T13:20:07.317Z,19.85
2023-03-26T13:21:17.281Z,19.82
2023-03-26T13:22:27.148Z,19.78
2023-03-26T13:23:39.903Z,19.72
2023-03-26T13:24:59.987Z,19.73
2023-03-26T13:26:15.650Z,19.75
2023-03-26T13:27:46.372Z,19.77
2023-03-26T13:28:59.165Z,19.76
2023-03-26T13:30:06.720Z,19.73
2023-03-26T13:31:27.385Z,19.70
2023-03-26T13:33:02.918Z,19.71
2023-03-26T13:34:24.311Z,19.73
2023-03-26T13:35:37.440Z,19.71
2023-03-26T13:36:49.988Z,19.61
2023-03-26T13:38:10.598Z,19.70
2023-03-26T13:39:24.500Z,19.61
2023-03-26T13:40:54.274Z,19.67
2023-03-26T13:42:21.859Z,19.69
2023-03-26T13:43:41.976Z,19.70
2023-03-26T13:45:26.346Z,19.71
2023-03-26T13:46:36.171Z,19.64
2023-03-26T13:47:46.433Z,19.62
2023-03-26T13:49:06.544Z,19.67
2023-03-26T13:50:19.085Z,19.64
2023-03-26T13:51:45.728Z,19.64
2023-03-26T13:52:56.126Z,19.65
2023-03-26T13:54:23.690Z,19.66
2023-03-26T13:55:40.758Z,19.60
2023-03-26T13:56:49.572Z,19.61
2023-03-26T13:58:14.196Z,19.53
2023-03-26T13:59:22.805Z,19.60
2023-03-26T14:00:39.206Z,19.59
2023-03-26T14:01:51.435Z,19.59
2023-03-26T14:03:21.871Z,19.62
2023-03-26T14:04:33.928Z,19.61
2023-03-26T14:05:42.643Z,19.59
2023-03-26T14:06:48.892Z,19.57
2023-03-26T14:08:04.341Z,19.50
2023-03-26T14:09:32.100Z,19.59
2023-03-26T14:10:41.773Z,19.57
2023-03-26T14:12:21.086Z,19.58
2023-03-26T14:13:33.518Z,19.59
2023-03-26T14:14:49.078Z,19.57
2023-03-26T14:16:14.137Z,19.59
2023-03-26T14:17:47.468Z,19.62
2023-03-26T14:19:05.017Z,19.58
2023-03-26T14:20:09.897Z,19.55
2023-03-26T14:21:25.890Z,19.54
2023-03-26T14:22:46.376Z,19.55
2023-03-26T14:23:54.110Z,19.54
2023-03-26T14:25:08.728Z,19.51
2023-03-26T14:26:13.554Z,19.52
2023-03-26T14:27:24.572Z,19.51
2023-03-26T14:28:28.916Z,19.50
2023-03-26T14:29:56.557Z,19.49
2023-03-26T14:31:06.057Z,19.54
2023-03-26T14:32:24.467Z,19.51
2023-03-26T14:34:02.367Z,19.54
2023-03-26T14:35:26.269Z,19.59
2023-03-26T14:36:46.506Z,19.55
2023-03-26T14:38:08.090Z,19.55
2023-03-26T14:39:24.934Z,19.54
2023-03-26T14:40:48.167Z,19.51
2023-03-26T14:42:02.815Z,19.52
2023-03-26T14:43:16.867Z,19.51
2023-03-26T14:44:48.379Z,19.48
2023-03-26T14:46:14.948Z,19.52
2023-03-26T14:47:20.524Z,19.50
2023-03-26T14:48:32.187Z,19.48
2023-03-26T14:49:38.340Z,19.43
2023-03-26T14:51:01.832Z,19.45
2023-03-26T14:52:09.708Z,19.45
2023-03-26T14:53:21.744Z,19.42
2023-03-26T14:54:27.605Z,19.36
2023-03-26T14:55:50.981Z,19.41
2023-03-26T14:57:04.840Z,19.43
2023-03-26T14:58:22.169Z,19.43
2023-03-26T14:59:39.042Z,19.42
2023-03-26T15:01:08.779Z,19.44
2023-03-26T15:02:22.945Z,19.46
2023-03-26T15:03:48.665Z,19.43
2023-03-26T15:05:21.380Z,19.45
2023-03-26T15:06:36.788Z,19.46
2023-03-26T15:08:00.156Z,19.42
2023-03-26T15:09:49.339Z,19.48
2023-03-26T15:11:09.978Z,19.46
2023-03-26T15:12:37.531Z,19.43
2023-03-26T15:14:01.147Z,19.45
2023-03-26T15:15:12.060Z,19.42
2023-03-26T15:16:17.741Z,19.38
2023-03-26T15:17:38.085Z,19.35
2023-03-26T15:18:58.016Z,19.38
2023-03-26T15:20:33.591Z,19.38
2023-03-26T15:22:12.664Z,19.41
2023-03-26T15:23:29.588Z,19.40
2023-03-26T15:25:09.580Z,19.35
2023-03-26T15:26:23.488Z,19.37
2023-03-26T15:27:50.541Z,19.35
2023-03-26T15:29:04.582Z,19.34
2023-03-26T15:30:28.407Z,19.32
2023-03-26T15:31:50.086Z,19.30
2023-03-26T15:33:39.637Z,19.35
2023-03-26T15:34:54.886Z,19.30
2023-03-26T15:36:22.503Z,19.32
2023-03-26T15:37:42.329Z,19.29
2023-03-26T15:38:47.005Z,19.28
2023-03-26T15:40:09.951Z,19.25
2023-03-26T15:41:39.621Z,19.26
2023-03-26T15:43:00.195Z,19.29
2023-03-26T15:44:38.077Z,19.27
2023-03-26T15:45:49.907Z,19.30
2023-03-26T15:47:10.331Z,19.25
2023-03-26T15:48:12.489Z,19.24
2023-03-26T15:49:28.575Z,19.20
2023-03-26T15:50:40.439Z,19.19
2023-03-26T15:52:25.608Z,19.17
2023-03-26T15:53:51.834Z,19.27
2023-03-26T15:55:17.288Z,19.24
2023-03-26T15:56:41.022Z,19.23
2023-03-26T15:58:13.803Z,19.25
2023-03-26T15:59:37.015Z,19.24
2023-03-26T16:00:57.335Z,19.22
2023-03-26T16:02:16.364Z,19.19
2023-03-26T16:03:48.392Z,19.23
2023-03-26T16:05:09.434Z,19.22
2023-03-26T16:06:35.633Z,19.19
2023-03-26T16:07:58.860Z,19.19
2023-03-26T16:09:09.597Z,19.17
2023-03-26T16:10:51.812Z,19.17
2023-03-26T16:12:03.534Z,19.17
2023-03-26T16:13:20.174Z,19.13
2023-03-26T16:14:38.292Z,19.10
2023-03-26T16:15:42.830Z,19.10
2023-03-26T16:16:59.235Z,19.00
2023-03-26T16:18:11.704Z,19.07